Latest Weather Observations for Rowley Shoals

IDW60801

Issued at 7:35 am WST Saturday 20 September 2014 (issued every 30 minutes, with the page automatically refreshed every 10 minutes)

About weather observations | Map of weather stations | Latest weather observations for WA | Other Formats
Station Details ID: 200713 Name: ROWLEY SHOALS Lat: -17.52 Lon: 118.95 Height: 0.0 m
Data from the previous 72 hours. | See also: Recent months for locations in Western Australia
Date/Time
WST
Temp
°C
App
Temp
°C
Dew
Point
Rel
Hum
%
Delta-T
°C
Wind Press
QNH
hPa
Press
MSL
hPa
Rain
since 9 am
mm
Dir
 
Spd
km/h
Gust
km/h
Spd
kts
Gust
kts
20/07:30am - - - - - SW 17 19 9 10 1014.6 - -
20/07:00am - - - - - SW 15 15 8 8 1014.5 1014.3 -
20/06:30am - - - - - WSW 15 17 8 9 1013.9 - -
20/06:00am - - - - - WSW 15 15 8 8 1013.6 1013.7 -
20/05:30am - - - - - WSW 15 19 8 10 1013.1 - -
20/05:00am - - - - - WSW 15 17 8 9 1012.9 1013.2 -
20/04:30am - - - - - WSW 11 13 6 7 1012.9 - -
20/04:00am - - - - - SW 17 20 9 11 1012.4 1012.4 -
20/03:30am - - - - - SW 17 19 9 10 1012.6 - -
20/03:00am - - - - - SW 17 20 9 11 1012.5 1012.5 -
20/02:30am - - - - - WSW 19 20 10 11 1013.0 - -
20/02:00am - - - - - WSW 19 20 10 11 1013.1 1013.0 -
20/01:30am - - - - - WSW 13 15 7 8 1013.5 - -
20/01:00am - - - - - WSW 13 13 7 7 1013.9 1013.8 -
20/12:30am - - - - - W 13 13 7 7 1014.4 - -
20/12:00am - - - - - W 13 15 7 8 1014.8 1014.7 -
 
Date/Time
WST
Temp
°C
App
Temp
°C
Dew
Point
Rel
Hum
%
Delta-T
°C
Wind Press
QNH
hPa
Press
MSL
hPa
Rain
since 9 am
mm
Dir
 
Spd
km/h
Gust
km/h
Spd
kts
Gust
kts
19/11:30pm - - - - - WSW 11 13 6 7 1014.9 - -
19/11:00pm - - - - - W 11 11 6 6 1015.3 1015.2 -
19/10:30pm - - - - - CALM 0 4 0 2 1015.5 - -
19/10:00pm - - - - - CALM 0 4 0 2 1015.7 1015.6 -
19/09:30pm - - - - - NNE 6 7 3 4 1015.9 - -
19/09:00pm - - - - - NNE 7 11 4 6 1015.8 1015.9 -
19/08:30pm - - - - - NNE 9 11 5 6 1015.8 - -
19/08:00pm - - - - - NNE 7 9 4 5 1015.5 1015.6 -
19/07:30pm - - - - - WSW 6 7 3 4 1015.0 - -
19/07:00pm - - - - - SW 6 7 3 4 1014.7 1014.8 -
19/06:30pm - - - - - WSW 11 15 6 8 1014.3 - -
19/06:00pm 26.5 - - - - WSW 15 17 8 9 1013.7 1013.9 -
19/05:30pm 26.6 - - - - WSW 17 19 9 10 1013.4 - -
19/05:00pm 26.6 - - - - WSW 13 15 7 8 1013.2 1013.4 -
19/04:30pm - - - - - W 11 13 6 7 1013.1 - -
19/04:00pm - - - - - W 11 11 6 6 1013.1 1013.0 -
19/03:30pm - - - - - NNW 9 11 5 6 1013.3 - -
19/03:00pm - - - - - NW 11 15 6 8 1013.5 1013.4 -
19/02:30pm - - - - - SW 13 17 7 9 1013.1 - -
19/02:00pm - - - - - SW 19 20 10 11 1012.9 1013.0 -
19/01:30pm - - - - - SSW 19 22 10 12 1013.2 - -
19/01:00pm - - - - - SSW 17 19 9 10 1013.9 1013.7 -
19/12:30pm - - - - - SSW 17 19 9 10 1014.4 - -
19/12:00pm - - - - - SSW 17 20 9 11 1014.8 1014.7 -
19/11:30am - - - - - SSW 17 19 9 10 1015.1 - -
19/11:00am - - - - - SSW 15 17 8 9 1015.5 1015.4 -
19/10:30am - - - - - SSW 13 15 7 8 1015.9 - -
19/10:00am - - - - - SSW 15 17 8 9 1016.1 1016.0 -
19/09:30am - - - - - SSW 15 17 8 9 1016.1 - -
19/09:00am - - - - - SSW 15 17 8 9 1016.2 1016.2 -
19/08:30am - - - - - SSW 17 19 9 10 1016.3 - -
19/08:00am - - - - - SW 15 17 8 9 1016.3 1016.4 -
19/07:30am - - - - - SW 15 17 8 9 1016.0 - -
19/07:00am - - - - - SW 15 17 8 9 1015.5 1015.6 -
19/06:30am - - - - - SW 13 15 7 8 1015.1 - -
19/06:00am - - - - - SW 13 13 7 7 1014.7 1014.9 -
19/05:30am - - - - - SW 15 17 8 9 1014.3 - -
19/05:00am - - - - - SW 13 15 7 8 1014.0 1014.0 -
19/04:30am - - - - - SW 13 13 7 7 1013.8 - -
19/04:00am - - - - - WSW 11 13 6 7 1013.8 1013.8 -
19/03:30am - - - - - WSW 11 13 6 7 1013.8 - -
19/03:00am - - - - - WSW 11 13 6 7 1013.8 1013.7 -
19/02:30am - - - - - WSW 11 11 6 6 1013.9 - -
19/02:00am - - - - - WSW 11 13 6 7 1014.3 1014.1 -
19/01:30am - - - - - WSW 9 11 5 6 1014.4 - -
19/01:00am - - - - - SSW 9 11 5 6 1014.5 1014.5 -
19/12:30am - - - - - SSW 9 13 5 7 1014.8 - -
19/12:00am - - - - - SSW 9 11 5 6 1015.0 1015.0 -
 
Date/Time
WST
Temp
°C
App
Temp
°C
Dew
Point
Rel
Hum
%
Delta-T
°C
Wind Press
QNH
hPa
Press
MSL
hPa
Rain
since 9 am
mm
Dir
 
Spd
km/h
Gust
km/h
Spd
kts
Gust
kts
18/11:30pm - - - - - S 9 11 5 6 1015.3 - -
18/11:00pm - - - - - S 9 13 5 7 1015.5 1015.4 -
18/10:30pm - - - - - S 11 13 6 7 1015.5 - -
18/10:00pm - - - - - S 11 15 6 8 1015.7 1015.7 -
18/09:30pm - - - - - S 15 17 8 9 1015.8 - -
18/09:00pm - - - - - S 15 19 8 10 1015.9 1015.9 -
18/08:30pm - - - - - S 19 20 10 11 1015.6 - -
18/08:00pm - - - - - S 17 20 9 11 1015.3 1015.4 -
18/07:30pm - - - - - S 15 19 8 10 1015.1 - -
18/07:00pm - - - - - SSW 15 20 8 11 1014.8 1015.0 -
18/06:30pm - - - - - SSW 19 20 10 11 1014.5 - -
18/06:00pm - - - - - SSW 19 22 10 12 1014.3 1014.3 -
18/05:30pm - - - - - SSW 19 20 10 11 1013.8 - -
18/05:00pm - - - - - SSW 20 24 11 13 1013.6 1013.7 -
18/04:30pm - - - - - SW 19 22 10 12 1013.4 - -
18/04:00pm - - - - - SW 19 20 10 11 1013.3 1013.3 -
18/03:30pm - - - - - SW 17 20 9 11 1013.3 - -
18/03:00pm - - - - - SW 17 20 9 11 1013.3 1013.3 -
18/02:30pm - - - - - WSW 15 19 8 10 1013.5 - -
18/02:00pm - - - - - WSW 15 17 8 9 1013.7 1013.7 -
18/01:30pm - - - - - WSW 13 17 7 9 1014.0 - -
18/01:00pm - - - - - WSW 15 17 8 9 1014.4 1014.3 -
18/12:30pm - - - - - WSW 13 15 7 8 1014.7 - -
18/12:00pm - - - - - WSW 13 15 7 8 1015.1 1015.0 -
18/11:30am - - - - - WSW 9 11 5 6 1015.7 - -
18/11:00am - - - - - W 9 11 5 6 1016.0 1015.9 -
18/10:30am - - - - - W 9 11 5 6 1016.3 - -
18/10:00am - - - - - W 7 9 4 5 1016.5 1016.4 -
18/09:30am - - - - - WSW 7 9 4 5 1016.5 - -
18/09:00am - - - - - WSW 9 11 5 6 1016.5 1016.5 -
18/08:30am - - - - - WSW 9 11 5 6 1016.5 - -
18/08:00am - - - - - WSW 9 11 5 6 1016.3 1016.4 -
18/07:30am - - - - - WSW 11 11 6 6 1015.9 - -
18/07:00am - - - - - WSW 13 15 7 8 1015.4 1015.6 -
18/06:30am - - - - - WSW 13 15 7 8 1015.2 - -
18/06:00am - - - - - WSW 13 17 7 9 1015.0 1015.1 -
18/05:30am - - - - - SW 15 17 8 9 1014.9 - -
18/05:00am - - - - - SW 15 15 8 8 1014.7 1014.7 -
18/04:30am - - - - - SW 11 15 6 8 1014.4 - -
18/04:00am - - - - - WSW 13 15 7 8 1014.0 1014.2 -
18/03:30am - - - - - WSW 13 15 7 8 1014.0 - -
18/03:00am - - - - - WSW 13 15 7 8 1014.0 1013.9 -
18/02:30am - - - - - WSW 13 15 7 8 1014.2 - -
18/02:00am - - - - - WSW 13 15 7 8 1014.4 1014.3 -
18/01:30am - - - - - WSW 9 11 5 6 1014.5 - -
18/01:00am - - - - - W 9 11 5 6 1014.8 1014.8 -
18/12:30am - - - - - SW 7 9 4 5 1014.9 - -
18/12:00am - - - - - WSW 7 11 4 6 1015.0 1014.9 -
 
Date/Time
WST
Temp
°C
App
Temp
°C
Dew
Point
Rel
Hum
%
Delta-T
°C
Wind Press
QNH
hPa
Press
MSL
hPa
Rain
since 9 am
mm
Dir
 
Spd
km/h
Gust
km/h
Spd
kts
Gust
kts
17/11:30pm - - - - - WSW 9 11 5 6 1015.0 - -
17/11:00pm - - - - - WSW 9 11 5 6 1015.1 1015.1 -
17/10:30pm - - - - - SW 9 13 5 7 1015.2 - -
17/10:00pm - - - - - SW 7 9 4 5 1015.2 1015.2 -
17/09:30pm - - - - - S 4 6 2 3 1015.1 - -
17/09:00pm - - - - - S 6 11 3 6 1015.2 1015.2 -
17/08:30pm - - - - - S 7 9 4 5 1015.0 - -
17/08:00pm - - - - - S 4 7 2 4 1014.8 1014.8 -
17/07:30pm - - - - - SSE 2 6 1 3 1014.5 - -
17/07:00pm - - - - - SSE 0 7 0 4 1014.1 1014.2 -
17/06:30pm - - - - - S 7 9 4 5 1013.7 - -
17/06:00pm 25.6 - - - - E 2 7 1 4 1013.4 1013.6 -
17/05:30pm 25.8 - - - - CALM 0 0 0 0 1013.2 - -
17/05:00pm 25.8 - - - - SE 4 7 2 4 1012.8 1012.9 -
17/04:30pm 26.0 - - - - E 2 11 1 6 1012.4 - -
17/04:00pm 25.9 - - - - NE 7 9 4 5 1012.5 1012.5 -
17/03:30pm - - - - - NE 6 11 3 6 1012.5 - -
17/03:00pm - - - - - E 4 9 2 5 1012.6 1012.5 -
17/02:30pm - - - - - SE 7 11 4 6 1012.6 - -
17/02:00pm - - - - - SE 9 13 5 7 1012.8 1012.8 -
17/01:30pm - - - - - SE 13 13 7 7 1013.0 - -
17/01:00pm - - - - - SSE 7 15 4 8 1013.3 1013.2 -
17/12:30pm - - - - - SSW 13 19 7 10 1013.3 - -
17/12:00pm - - - - - SW 24 30 13 16 1012.9 1013.1 -
17/11:30am - - - - - SW 20 24 11 13 1013.7 - -
17/11:00am - - - - - S 13 19 7 10 1014.4 1014.0 -
17/10:30am - - - - - S 13 20 7 11 1014.5 - -
17/10:00am - - - - - SW 17 20 9 11 1014.5 1014.3 -
17/09:30am - - - - - SW 11 13 6 7 1014.7 - -
17/09:00am - - - - - SW 11 15 6 8 1014.9 1014.6 -
17/08:30am - - - - - WSW 19 22 10 12 1014.1 - -
17/08:00am - - - - - WSW 19 26 10 14 1014.7 1013.7 -

Other Formats:

Comma delimited format used in spreadsheet applications
http://www.bom.gov.au/fwo/IDW60801/IDW60801.94207.axf

JavaScript Object Notation format (JSON) in row-major order
http://www.bom.gov.au/fwo/IDW60801/IDW60801.94207.json